createdAt,value
2023-02-08T00:01:26.597Z,-4.90
2023-02-08T00:03:55.967Z,-5.01
2023-02-08T00:06:25.740Z,-4.88
2023-02-08T00:08:54.813Z,-4.83
2023-02-08T00:11:24.845Z,-4.80
2023-02-08T00:13:53.766Z,-4.91
2023-02-08T00:16:22.975Z,-5.23
2023-02-08T00:18:54.000Z,-5.25
2023-02-08T00:21:23.593Z,-5.12
2023-02-08T00:23:53.285Z,-5.20
2023-02-08T00:26:24.706Z,-5.65
2023-02-08T00:28:54.821Z,-5.48
2023-02-08T00:31:23.047Z,-5.60
2023-02-08T00:33:56.078Z,-5.52
2023-02-08T00:36:28.555Z,-5.41
2023-02-08T00:38:57.754Z,-5.40
2023-02-08T00:41:29.751Z,-5.35
2023-02-08T00:43:57.995Z,-5.30
2023-02-08T00:46:26.962Z,-5.52
2023-02-08T00:48:55.957Z,-5.40
2023-02-08T00:51:25.867Z,-5.46
2023-02-08T00:53:55.158Z,-5.49
2023-02-08T00:56:28.089Z,-5.47
2023-02-08T00:58:57.686Z,-5.55
2023-02-08T01:01:25.862Z,-5.57
2023-02-08T01:03:54.659Z,-5.53
2023-02-08T01:06:26.077Z,-5.48
2023-02-08T01:08:54.769Z,-5.80
2023-02-08T01:11:28.224Z,-5.59
2023-02-08T01:14:01.775Z,-5.59
2023-02-08T01:16:33.357Z,-5.59
2023-02-08T01:19:05.077Z,-5.57
2023-02-08T01:21:36.915Z,-5.73
2023-02-08T01:26:56.634Z,-5.84
2023-02-08T01:29:27.767Z,-5.73
2023-02-08T01:31:57.421Z,-5.88
2023-02-08T01:34:28.438Z,-5.85
2023-02-08T01:37:03.538Z,-5.75
2023-02-08T01:39:36.713Z,-5.70
2023-02-08T01:45:25.479Z,-5.73
2023-02-08T01:48:23.761Z,-5.57
2023-02-08T01:51:14.959Z,-5.69
2023-02-08T01:53:47.095Z,-5.73
2023-02-08T01:56:47.141Z,-5.89
2023-02-08T01:59:26.800Z,-6.09
2023-02-08T02:01:58.396Z,-6.17
2023-02-08T02:04:28.286Z,-6.06
2023-02-08T02:07:01.926Z,-5.95
2023-02-08T02:09:59.441Z,-6.07
2023-02-08T02:12:33.148Z,-5.85
2023-02-08T02:15:03.578Z,-5.97
2023-02-08T02:17:33.785Z,-6.14
2023-02-08T02:20:27.209Z,-6.37
2023-02-08T02:23:22.166Z,-6.19
2023-02-08T02:26:08.353Z,-6.13
2023-02-08T02:29:01.870Z,-6.07
2023-02-08T02:32:04.771Z,-6.25
2023-02-08T02:34:45.669Z,-6.35
2023-02-08T02:38:10.365Z,-6.22
2023-02-08T02:40:57.360Z,-6.21
2023-02-08T02:43:46.618Z,-6.08
2023-02-08T02:46:54.387Z,-6.16
2023-02-08T02:49:35.377Z,-6.11
2023-02-08T02:52:20.448Z,-6.47
2023-02-08T02:54:53.199Z,-6.16
2023-02-08T02:57:29.540Z,-6.22
2023-02-08T02:59:59.240Z,-6.22
2023-02-08T03:02:32.608Z,-6.50
2023-02-08T03:05:06.479Z,-6.70
2023-02-08T03:07:59.346Z,-6.54
2023-02-08T03:10:43.367Z,-6.70
2023-02-08T03:13:57.100Z,-6.47
2023-02-08T03:16:40.341Z,-6.49
2023-02-08T03:19:18.452Z,-6.78
2023-02-08T03:21:55.404Z,-6.52
2023-02-08T03:25:02.487Z,-6.78
2023-02-08T03:27:56.248Z,-6.51
2023-02-08T03:31:07.409Z,-6.50
2023-02-08T03:33:57.537Z,-6.73
2023-02-08T03:36:49.298Z,-6.40
2023-02-08T03:39:23.390Z,-6.45
2023-02-08T03:41:59.309Z,-6.79
2023-02-08T03:44:44.584Z,-6.67
2023-02-08T03:47:30.568Z,-6.55
2023-02-08T03:50:05.719Z,-6.62
2023-02-08T03:52:36.652Z,-6.77
2023-02-08T03:55:12.248Z,-6.80
2023-02-08T03:57:59.095Z,-6.73
2023-02-08T04:00:34.453Z,-6.72
2023-02-08T04:03:13.838Z,-6.90
2023-02-08T04:05:46.891Z,-6.95
2023-02-08T04:08:14.834Z,-6.74
2023-02-08T04:10:47.535Z,-6.78
2023-02-08T04:13:16.329Z,-6.75
2023-02-08T04:15:45.326Z,-6.88
2023-02-08T04:18:14.189Z,-6.95
2023-02-08T04:20:43.364Z,-6.83
2023-02-08T04:23:11.755Z,-6.80
2023-02-08T04:25:41.020Z,-6.73
2023-02-08T04:28:12.494Z,-6.86
2023-02-08T04:30:42.016Z,-6.72
2023-02-08T04:33:14.409Z,-6.63
2023-02-08T04:35:43.768Z,-6.70
2023-02-08T04:38:12.894Z,-6.78
2023-02-08T04:40:42.243Z,-6.77
2023-02-08T04:43:12.145Z,-6.85
2023-02-08T04:45:41.149Z,-6.65
2023-02-08T04:48:11.978Z,-6.90
2023-02-08T04:50:41.097Z,-6.85
2023-02-08T04:53:10.182Z,-6.72
2023-02-08T04:55:39.089Z,-7.05
2023-02-08T04:58:10.906Z,-6.67
2023-02-08T05:00:40.898Z,-6.84
2023-02-08T05:03:13.374Z,-6.56
2023-02-08T05:05:42.605Z,-6.99
2023-02-08T05:08:12.012Z,-6.93
2023-02-08T05:10:46.700Z,-6.68
2023-02-08T05:13:15.877Z,-6.91
2023-02-08T05:15:45.815Z,-7.07
2023-02-08T05:18:14.799Z,-6.68
2023-02-08T05:20:43.741Z,-7.19
2023-02-08T05:23:13.038Z,-7.38
2023-02-08T05:25:44.907Z,-6.97
2023-02-08T05:28:14.278Z,-6.78
2023-02-08T05:30:43.899Z,-6.75
2023-02-08T05:33:13.333Z,-6.75
2023-02-08T05:35:45.878Z,-6.83
2023-02-08T05:38:15.700Z,-6.89
2023-02-08T05:40:45.498Z,-6.93
2023-02-08T05:43:14.779Z,-6.78
2023-02-08T05:45:46.846Z,-6.79
2023-02-08T05:48:15.859Z,-6.86
2023-02-08T05:50:46.046Z,-6.73
2023-02-08T05:53:15.593Z,-6.99
2023-02-08T05:55:51.692Z,-6.79
2023-02-08T05:58:24.534Z,-6.77
2023-02-08T06:00:54.877Z,-6.62
2023-02-08T06:03:24.193Z,-6.69
2023-02-08T06:05:53.881Z,-6.48
2023-02-08T06:08:22.742Z,-6.55
2023-02-08T06:10:54.714Z,-6.49
2023-02-08T06:13:24.732Z,-6.30
2023-02-08T06:15:53.750Z,-6.35
2023-02-08T06:18:24.519Z,-5.99
2023-02-08T06:20:56.015Z,-5.86
2023-02-08T06:23:25.772Z,-6.10
2023-02-08T06:25:54.742Z,-6.03
2023-02-08T06:28:24.524Z,-5.77
2023-02-08T06:30:56.484Z,-6.00
2023-02-08T06:33:25.545Z,-6.02
2023-02-08T06:36:03.014Z,-5.54
2023-02-08T06:38:31.840Z,-5.52
2023-02-08T06:41:02.561Z,-5.19
2023-02-08T06:43:34.133Z,-5.17
2023-02-08T06:46:05.994Z,-5.32
2023-02-08T06:48:38.094Z,-5.14
2023-02-08T06:51:08.576Z,-4.90
2023-02-08T06:53:38.251Z,-4.89
2023-02-08T06:56:12.864Z,-4.92
2023-02-08T06:58:45.366Z,-4.87
2023-02-08T07:01:19.847Z,-4.67
2023-02-08T07:03:50.243Z,-4.78
2023-02-08T07:06:21.874Z,-4.58
2023-02-08T07:08:53.521Z,-4.30
2023-02-08T07:11:25.171Z,-4.20
2023-02-08T07:13:56.078Z,-4.38
2023-02-08T07:16:35.449Z,-4.38
2023-02-08T07:19:04.128Z,-4.27
2023-02-08T07:21:34.608Z,-4.13
2023-02-08T07:24:05.899Z,-4.14
2023-02-08T07:26:34.891Z,-4.25
2023-02-08T07:29:02.965Z,-4.30
2023-02-08T07:31:32.971Z,-3.79
2023-02-08T07:34:02.550Z,-3.67
2023-02-08T07:36:32.715Z,-3.63
2023-02-08T07:42:01.277Z,-3.33
2023-02-08T07:44:30.960Z,-3.08
2023-02-08T07:47:02.436Z,-3.06
2023-02-08T07:49:32.563Z,-3.48
2023-02-08T07:52:02.989Z,-3.20
2023-02-08T07:54:35.074Z,-2.75
2023-02-08T07:57:05.036Z,-3.05
2023-02-08T07:59:36.206Z,-2.68
2023-02-08T08:02:05.367Z,-2.78
2023-02-08T08:04:35.065Z,-2.58
2023-02-08T08:07:03.773Z,-2.65
2023-02-08T08:09:34.160Z,-2.78
2023-02-08T08:12:03.561Z,-2.51
2023-02-08T08:14:32.795Z,-2.33
2023-02-08T08:17:02.459Z,-2.77
2023-02-08T08:19:35.405Z,-2.54
2023-02-08T08:22:03.643Z,-2.64
2023-02-08T08:24:35.878Z,-2.62
2023-02-08T08:27:13.438Z,-2.31
2023-02-08T08:29:44.594Z,-2.44
2023-02-08T08:32:13.772Z,-2.07
2023-02-08T08:34:43.055Z,-2.59
2023-02-08T08:37:12.050Z,-2.23
2023-02-08T08:39:41.151Z,-2.14
2023-02-08T08:42:13.012Z,-1.78
2023-02-08T08:44:41.820Z,-1.60
2023-02-08T08:47:11.363Z,-1.79
2023-02-08T08:49:39.911Z,-1.52
2023-02-08T08:52:10.284Z,-1.37
2023-02-08T08:54:39.967Z,-1.20
2023-02-08T08:57:09.145Z,-1.20
2023-02-08T08:59:40.697Z,-1.42
2023-02-08T09:02:14.602Z,-1.18
2023-02-08T09:04:48.228Z,-1.22
2023-02-08T09:07:18.311Z,-1.29
2023-02-08T09:09:51.024Z,-0.91
2023-02-08T09:12:21.677Z,-0.63
2023-02-08T09:14:49.923Z,-0.56
2023-02-08T09:17:20.505Z,-0.74
2023-02-08T09:19:49.838Z,-0.57
2023-02-08T09:22:20.990Z,-0.19
2023-02-08T09:24:55.437Z,-0.04
2023-02-08T09:27:24.626Z,0.26
2023-02-08T09:29:55.981Z,-0.15
2023-02-08T09:32:25.604Z,-0.48
2023-02-08T09:34:57.370Z,-0.24
2023-02-08T09:37:26.368Z,-0.30
2023-02-08T09:39:56.326Z,0.46
2023-02-08T09:42:39.991Z,0.30
2023-02-08T09:45:58.948Z,0.19
2023-02-08T09:48:36.097Z,0.66
2023-02-08T09:51:49.041Z,1.05
2023-02-08T09:54:30.998Z,0.51
2023-02-08T09:57:04.989Z,1.19
2023-02-08T09:59:37.402Z,1.18
2023-02-08T10:02:30.243Z,1.34
2023-02-08T10:05:14.173Z,1.48
2023-02-08T10:07:44.171Z,1.25
2023-02-08T10:10:20.880Z,1.41
2023-02-08T10:13:27.610Z,1.72
2023-02-08T10:16:19.758Z,1.83
2023-02-08T10:19:17.547Z,2.12
2023-02-08T10:22:04.212Z,1.44
2023-02-08T10:25:07.741Z,1.89
2023-02-08T10:28:14.461Z,1.98
2023-02-08T10:36:28.529Z,2.19
2023-02-08T10:39:01.105Z,2.38
2023-02-08T10:41:37.826Z,2.13
2023-02-08T10:45:01.796Z,2.38
2023-02-08T10:47:48.385Z,2.71
2023-02-08T10:50:54.152Z,2.76
2023-02-08T10:53:23.791Z,3.24
2023-02-08T10:55:59.382Z,3.43
2023-02-08T12:17:42.721Z,3.03
2023-02-08T20:15:29.869Z,-4.14
2023-02-08T20:17:58.854Z,-4.21
2023-02-08T20:20:27.896Z,-4.11
2023-02-08T20:23:00.547Z,-4.25
2023-02-08T20:25:35.868Z,-4.22
2023-02-08T20:28:13.354Z,-4.17
2023-02-08T20:30:43.013Z,-4.18
2023-02-08T20:33:25.912Z,-4.18
2023-02-08T20:35:58.141Z,-4.11
2023-02-08T20:38:40.222Z,-4.25
2023-02-08T20:41:14.972Z,-4.41
2023-02-08T20:43:45.872Z,-4.26
2023-02-08T20:46:23.401Z,-4.47
2023-02-08T20:48:53.631Z,-4.44
2023-02-08T20:51:23.556Z,-4.48
2023-02-08T20:53:59.235Z,-4.37
2023-02-08T20:56:41.531Z,-4.65
2023-02-08T20:59:16.209Z,-4.62
2023-02-08T21:01:48.278Z,-4.73
2023-02-08T21:04:24.160Z,-4.56
2023-02-08T21:06:58.449Z,-4.58
2023-02-08T21:09:29.856Z,-4.82
2023-02-08T21:14:44.889Z,-4.73
2023-02-08T21:17:19.041Z,-4.73
2023-02-08T21:19:51.916Z,-4.78
2023-02-08T21:22:26.013Z,-4.54
2023-02-08T21:24:55.288Z,-4.65
2023-02-08T21:27:25.414Z,-4.65
2023-02-08T21:29:54.569Z,-4.76
2023-02-08T21:32:25.670Z,-4.66
2023-02-08T21:34:57.779Z,-4.73
2023-02-08T21:37:26.517Z,-4.89
2023-02-08T22:57:15.603Z,-5.60
2023-02-08T23:03:29.968Z,-5.83
2023-02-08T23:40:41.436Z,-5.75
2023-02-08T23:43:29.067Z,-5.89
2023-02-08T23:57:40.621Z,-6.16
